Terminal Aerodrome Forecast
Issued by NWS

Home | Current Version | Previous Version | Text Only | Print | Product List | Glossary On
Versions: 1 2 3 4 5 6 7 8 9 10 11 12 13 14 15 16
000
FTUS42 KMHX 291300 AAA
TAFISO
TAF AMD
KISO 291337Z 2914/3012 04003KT P6SM BKN007
     FM291430 11006KT P6SM BKN015
     FM291600 08007KT P6SM BKN040
     FM300100 12003KT P6SM SCT040
     FM300700 00000KT 4SM BR SCT003
      AMD LTD TO CLD VIS AND WIND=

USA.gov is the U.S. government's official web portal to all federal, state and local government web resources and services.